• Join FlightAware (Why Join?)
  • Login
  • US Flag GB Flag 
20:01 EST


 

Airport Tracker/Info


-or-


 

Live Flight TrackerFlight Track Log ✈ UCA4838 ✈ 24-Apr-2013 ✈ KITH - KEWR

Flight Track Log - Related Links

Times and Time Zones

All times are in EDT time to prevent confusion due to time zone crossing. See the UCA4838 flight status page for this flight to view local times or setup timezone preferences in your user account.

Time Position Orientation Groundspeed Altitude Reporting Facility
EDT Latitude Longitude Course Direction KTS MPH feet Rate Location/Type
17:53 42.6017 -76.4461 119° Southeast 279 321 6,300  Level New York Center
17:54 42.6394 -76.3958 44° Northeast 239 275 7,900 840 Climbing New York Center
17:55 42.6883 -76.3322 44° Northeast 226 260 8,000  Climbing New York Center
17:56 42.7550 -76.2664 36° Northeast 236 272 8,000  Level Boston Center
17:57 42.7864 -76.2003 57° Northeast 241 277 8,000 60 Level Boston Center
17:58 42.8194 -76.1486 49° Northeast 260 299 8,100 600 Climbing Boston Center
17:58 42.8394 -76.1072 57° Northeast 254 292 8,600 1,260 Climbing Boston Center
17:59 42.2809 -75.9140 119° Southeast  Level FlightAware Approximate
17:59 42.8506 -76.0881 52° Northeast 258 297 9,000  Level Boston Center
18:00 42.8864 -76.0108 58° Northeast 254 292 10,000 540 Climbing Boston Center
18:01 42.9083 -75.9044 74° East 285 328 10,100 480 Climbing Boston Center
18:02 42.9344 -75.7981 71° East 296 341 11,000 720 Climbing Boston Center
18:02 42.9369 -75.7839 76° East 274 315 11,100 1,020 Climbing Boston Center
18:03 42.9694 -75.6694 69° East 274 315 12,400 1,200 Climbing Boston Center
18:04 42.9617 -75.5725 96° East 268 308 13,500 1,200 Climbing Boston Center
18:05 42.9431 -75.4922 108° East 245 282 14,800 1,320 Climbing Boston Center
18:06 42.9092 -75.4367 130° Southeast 200 230 16,200 1,140 Climbing Boston Center
18:07 42.8658 -75.4175 162° South 164 189 17,100 420 Climbing Boston Center
18:08 42.8122 -75.3950 163° South 179 206 17,100  Level Boston Center
18:09 42.7525 -75.3667 161° South 211 243 17,100  Level Boston Center
18:10 42.6928 -75.3386 161° South 226 260 17,100  Level Boston Center
18:11 42.6308 -75.3131 163° South 231 266 17,100 -300 Level Boston Center
18:12 42.5714 -75.2708 152° Southeast 231 266 16,500 -840 Descending Boston Center
18:13 42.4983 -75.1969 143° Southeast 247 284 15,300 -840 Descending Boston Center
18:14 42.4369 -75.1408 146° Southeast 261 300 14,900 -240 Descending Boston Center
18:15 42.3781 -75.0850 145° Southeast 267 307 14,900  Level Boston Center
18:16 42.3208 -75.0347 147° Southeast 261 300 14,900  Level Boston Center
18:17 42.2636 -74.9819 146° Southeast 255 293 14,900  Level Boston Center
18:18 42.2064 -74.9264 144° Southeast 255 293 14,900  Level Boston Center
18:19 42.1594 -74.8853 147° Southeast 255 293 14,900 -120 Level Boston Center
18:20 42.0856 -74.8236 148° Southeast 255 293 14,700 -600 Descending Boston Center
18:21 42.0203 -74.7597 144° Southeast 279 321 13,700 -1,080 Descending Boston Center
18:22 41.9547 -74.6986 145° Southeast 290 334 12,600 -1,200 Descending Boston Center
18:23 41.8892 -74.6406 147° Southeast 290 334 11,400 -780 Descending Boston Center
18:24 41.8233 -74.5992 155° Southeast 279 321 11,000 -240 Descending Boston Center
18:25 41.7442 -74.5992 180° South 246 283 11,000 -240 Level Boston Center
18:27 41.6650 -74.5967 179° South 241 277 10,500 -720 Descending Boston Center
18:28 41.5942 -74.5942 178° South 236 272 9,300 -1,200 Descending Boston Center
18:29 41.5192 -74.5944 180° South 242 278 8,100 -660 Descending Boston Center
18:30 41.4586 -74.5922 178° South 247 284 8,000 -720 Descending Boston Center
18:31 41.3667 -74.6167 191° South 226 260 6,400 -840 Descending New York TRACON
18:32 41.3000 -74.6333 191° South 214 246 6,000 -300 Descending New York TRACON
18:33 41.2500 -74.6500 194° South 199 229 5,800 -540 Descending New York TRACON
18:34 41.2000 -74.6500 180° South 200 230 5,000 -480 Descending New York TRACON
18:35 41.1500 -74.6167 153° Southeast 221 254 5,000  Level New York TRACON
18:36 41.1500 -74.5333 90° East 269 310 5,000  Level New York TRACON
18:37 41.1500 -74.4333 90° East 245 282 5,000  Level New York TRACON
18:38 41.1333 -74.3500 105° East 233 268 5,000  Level New York TRACON
18:39 41.1333 -74.2667 90° East 229 264 5,000  Level New York TRACON
18:40 41.0833 -74.2333 153° Southeast 186 214 5,000  Level New York TRACON
18:41 41.0333 -74.2167 166° South 186 214 5,000 -540 Level New York TRACON
18:42 40.9833 -74.2000 166° South 192 221 4,000 -540 Descending New York TRACON
18:43 40.9500 -74.1333 123° Southeast 214 246 4,000 -480 Level New York TRACON
18:44 40.9167 -74.0833 131° Southeast 206 237 3,000 -480 Descending New York TRACON
18:45 40.8667 -74.0667 166° South 163 188 3,000 -120 Level New York TRACON
18:46 40.8333 -74.0833 201° Southwest 162 186 2,800 -600 Descending New York TRACON
18:47 40.7833 -74.1000 194° South 162 186 1,900 -840 Descending New York TRACON
18:48 40.7500 -74.1333 217° Southwest 124 143 1,200 -600 Descending New York TRACON
18:49 40.7333 -74.1500 217° Southwest 97 112 700 -540 Descending New York TRACON
18:51 40.6925 -74.1687 199° South  Level Estimated
18:58 40.6925 -74.1687 199° South  Level Estimated
18:59 40.6925 -74.1687 199° South  Level Estimated